createdAt,value
2023-04-18T00:00:02.116Z,1015.10
2023-04-18T00:01:02.486Z,1015.08
2023-04-18T00:02:02.563Z,1015.10
2023-04-18T00:03:04.500Z,1015.13
2023-04-18T00:04:02.807Z,1015.12
2023-04-18T00:05:02.973Z,1015.10
2023-04-18T00:06:02.648Z,1015.11
2023-04-18T00:07:03.047Z,1015.09
2023-04-18T00:08:02.682Z,1015.09
2023-04-18T00:09:02.757Z,1015.09
2023-04-18T00:10:02.496Z,1015.10
2023-04-18T00:11:02.900Z,1015.13
2023-04-18T00:12:03.283Z,1015.11
2023-04-18T00:13:02.907Z,1015.09
2023-04-18T00:14:03.301Z,1015.12
2023-04-18T00:15:03.331Z,1015.10
2023-04-18T00:16:02.873Z,1015.12
2023-04-18T00:17:02.521Z,1015.10
2023-04-18T00:18:03.003Z,1015.11
2023-04-18T00:19:02.378Z,1015.11
2023-04-18T00:20:02.378Z,1015.12
2023-04-18T00:21:03.005Z,1015.09
2023-04-18T00:22:02.624Z,1015.12
2023-04-18T00:23:02.832Z,1015.08
2023-04-18T00:24:02.788Z,1015.10
2023-04-18T00:25:03.135Z,1015.13
2023-04-18T00:26:02.740Z,1015.09
2023-04-18T00:27:02.772Z,1015.10
2023-04-18T00:28:02.770Z,1015.11
2023-04-18T00:29:02.237Z,1015.07
2023-04-18T00:30:02.546Z,1015.07
2023-04-18T00:31:02.865Z,1015.11
2023-04-18T00:32:02.563Z,1015.09
2023-04-18T00:33:03.046Z,1015.07
2023-04-18T00:34:02.688Z,1015.09
2023-04-18T00:35:02.992Z,1015.06
2023-04-18T00:36:02.415Z,1015.09
2023-04-18T00:37:02.311Z,1015.07
2023-04-18T00:38:02.009Z,1015.09
2023-04-18T00:39:01.896Z,1015.10
2023-04-18T00:40:02.238Z,1015.06
2023-04-18T00:41:02.197Z,1015.06
2023-04-18T00:42:02.075Z,1015.06
2023-04-18T00:43:02.431Z,1015.04
2023-04-18T00:44:02.291Z,1015.10
2023-04-18T00:45:02.113Z,1015.08
2023-04-18T00:46:02.254Z,1015.05
2023-04-18T00:47:01.969Z,1015.05
2023-04-18T00:48:02.365Z,1015.02
2023-04-18T00:49:01.999Z,1015.01
2023-04-18T00:50:02.303Z,1015.03
2023-04-18T00:51:02.334Z,1015.01
2023-04-18T00:52:02.106Z,1015.00
2023-04-18T00:53:02.446Z,1014.98
2023-04-18T00:54:02.058Z,1014.97
2023-04-18T00:55:02.700Z,1015.02
2023-04-18T00:56:02.067Z,1015.00
2023-04-18T00:57:02.793Z,1015.07
2023-04-18T00:58:02.659Z,1015.04
2023-04-18T00:59:02.990Z,1015.06
2023-04-18T01:00:02.477Z,1015.08
2023-04-18T01:01:03.020Z,1015.09
2023-04-18T01:02:02.625Z,1015.10
2023-04-18T01:03:03.458Z,1015.09
2023-04-18T01:04:02.764Z,1015.07
2023-04-18T01:05:02.939Z,1015.06
2023-04-18T01:06:03.000Z,1015.03
2023-04-18T01:07:03.239Z,1015.01
2023-04-18T01:08:03.186Z,1015.02
2023-04-18T01:09:03.278Z,1015.01
2023-04-18T01:10:03.726Z,1015.01
2023-04-18T01:11:03.190Z,1014.97
2023-04-18T01:12:02.645Z,1015.01
2023-04-18T01:13:02.955Z,1015.00
2023-04-18T01:14:03.179Z,1015.00
2023-04-18T01:15:02.956Z,1014.96
2023-04-18T01:16:02.563Z,1014.98
2023-04-18T01:17:03.041Z,1014.98
2023-04-18T01:18:03.390Z,1014.93
2023-04-18T01:19:03.028Z,1014.91
2023-04-18T01:20:03.418Z,1014.94
2023-04-18T01:21:03.297Z,1014.90
2023-04-18T01:22:02.998Z,1014.96
2023-04-18T01:23:03.271Z,1014.91
2023-04-18T01:24:03.131Z,1014.90
2023-04-18T01:25:03.522Z,1014.92
2023-04-18T01:26:03.321Z,1014.86
2023-04-18T01:27:03.008Z,1014.83
2023-04-18T01:28:03.118Z,1014.81
2023-04-18T01:29:03.483Z,1014.83
2023-04-18T01:30:03.579Z,1014.83
2023-04-18T01:31:02.957Z,1014.81
2023-04-18T01:32:02.415Z,1014.85
2023-04-18T01:33:02.916Z,1014.81
2023-04-18T01:34:02.601Z,1014.80
2023-04-18T01:35:02.347Z,1014.78
2023-04-18T01:36:02.955Z,1014.82
2023-04-18T01:37:03.185Z,1014.78
2023-04-18T01:38:03.636Z,1014.80
2023-04-18T01:39:03.012Z,1014.81
2023-04-18T01:40:03.043Z,1014.81
2023-04-18T01:41:03.424Z,1014.81
2023-04-18T01:42:02.744Z,1014.82
2023-04-18T01:43:03.135Z,1014.82
2023-04-18T01:44:03.171Z,1014.79
2023-04-18T01:45:02.825Z,1014.80
2023-04-18T01:46:03.028Z,1014.85
2023-04-18T01:47:03.261Z,1014.82
2023-04-18T01:48:03.184Z,1014.81
2023-04-18T01:49:02.900Z,1014.79
2023-04-18T01:50:03.210Z,1014.81
2023-04-18T01:51:03.251Z,1014.81
2023-04-18T01:52:03.009Z,1014.84
2023-04-18T01:53:02.621Z,1014.81
2023-04-18T01:54:02.575Z,1014.84
2023-04-18T01:55:02.997Z,1014.80
2023-04-18T01:56:03.056Z,1014.81
2023-04-18T01:57:03.344Z,1014.81
2023-04-18T01:58:02.898Z,1014.83
2023-04-18T01:59:03.453Z,1014.85
2023-04-18T02:00:02.903Z,1014.82
2023-04-18T02:01:03.476Z,1014.78
2023-04-18T02:02:02.557Z,1014.76
2023-04-18T02:03:03.129Z,1014.80
2023-04-18T02:04:02.575Z,1014.79
2023-04-18T02:05:03.016Z,1014.81
2023-04-18T02:06:02.366Z,1014.84
2023-04-18T02:07:02.747Z,1014.84
2023-04-18T02:08:03.059Z,1014.84
2023-04-18T02:09:02.645Z,1014.82
2023-04-18T02:10:03.127Z,1014.82
2023-04-18T02:11:02.561Z,1014.84
2023-04-18T02:12:03.253Z,1014.80
2023-04-18T02:13:02.734Z,1014.83
2023-04-18T02:14:03.051Z,1014.82
2023-04-18T02:15:03.299Z,1014.79
2023-04-18T02:16:03.389Z,1014.80
2023-04-18T02:17:02.613Z,1014.82
2023-04-18T02:18:02.341Z,1014.83
2023-04-18T02:19:02.301Z,1014.81
2023-04-18T02:20:02.661Z,1014.83
2023-04-18T02:21:02.311Z,1014.81
2023-04-18T02:22:02.601Z,1014.84
2023-04-18T02:23:02.634Z,1014.85
2023-04-18T02:24:02.706Z,1014.89
2023-04-18T02:25:02.339Z,1014.82
2023-04-18T02:26:02.737Z,1014.87
2023-04-18T02:27:03.132Z,1014.85
2023-04-18T02:28:03.329Z,1014.80
2023-04-18T02:29:02.761Z,1014.82
2023-04-18T02:30:03.199Z,1014.81
2023-04-18T02:31:03.115Z,1014.83
2023-04-18T02:32:02.684Z,1014.83
2023-04-18T02:33:02.289Z,1014.86
2023-04-18T02:34:02.171Z,1014.84
2023-04-18T02:35:02.479Z,1014.85
2023-04-18T02:36:02.711Z,1014.83
2023-04-18T02:37:02.541Z,1014.80
2023-04-18T02:38:03.025Z,1014.80
2023-04-18T02:39:02.384Z,1014.83
2023-04-18T02:40:02.730Z,1014.77
2023-04-18T02:41:03.006Z,1014.79
2023-04-18T02:42:03.071Z,1014.80
2023-04-18T02:43:02.813Z,1014.79
2023-04-18T02:44:03.171Z,1014.78
2023-04-18T02:45:02.834Z,1014.77
2023-04-18T02:46:03.130Z,1014.77
2023-04-18T02:47:02.682Z,1014.79
2023-04-18T02:48:02.739Z,1014.79
2023-04-18T02:49:02.500Z,1014.77
2023-04-18T02:50:02.211Z,1014.79
2023-04-18T02:51:02.531Z,1014.78
2023-04-18T02:52:02.825Z,1014.82
2023-04-18T02:53:02.911Z,1014.81
2023-04-18T02:54:02.366Z,1014.84
2023-04-18T02:55:02.345Z,1014.84
2023-04-18T02:56:02.715Z,1014.80
2023-04-18T02:57:02.986Z,1014.80
2023-04-18T02:58:02.606Z,1014.81
2023-04-18T02:59:02.949Z,1014.82
2023-04-18T03:00:02.851Z,1014.80
2023-04-18T03:01:02.630Z,1014.81
2023-04-18T03:02:02.434Z,1014.78
2023-04-18T03:03:02.693Z,1014.79
2023-04-18T03:04:02.562Z,1014.80
2023-04-18T03:05:02.438Z,1014.81
2023-04-18T03:06:02.269Z,1014.80
2023-04-18T03:07:01.777Z,1014.81
2023-04-18T03:08:02.174Z,1014.82
2023-04-18T03:09:01.978Z,1014.81
2023-04-18T03:10:01.933Z,1014.81
2023-04-18T03:11:02.201Z,1014.83
2023-04-18T03:12:02.499Z,1014.83
2023-04-18T03:13:02.130Z,1014.82
2023-04-18T03:14:02.183Z,1014.88
2023-04-18T03:15:02.494Z,1014.88
2023-04-18T03:16:02.064Z,1014.87
2023-04-18T03:17:02.239Z,1014.88
2023-04-18T03:18:01.862Z,1014.87
2023-04-18T03:19:02.097Z,1014.86
2023-04-18T03:20:01.560Z,1014.86
2023-04-18T03:21:02.192Z,1014.88
2023-04-18T03:22:02.534Z,1014.89
2023-04-18T03:23:02.278Z,1014.86
2023-04-18T03:24:02.401Z,1014.86
2023-04-18T03:25:02.163Z,1014.83
2023-04-18T03:26:02.497Z,1014.85
2023-04-18T03:27:02.484Z,1014.86
2023-04-18T03:28:02.450Z,1014.86
2023-04-18T03:29:02.731Z,1014.85
2023-04-18T03:30:02.784Z,1014.85
2023-04-18T03:31:02.883Z,1014.86
2023-04-18T03:32:02.456Z,1014.85
2023-04-18T03:33:03.011Z,1014.84
2023-04-18T03:34:02.354Z,1014.85
2023-04-18T03:35:02.778Z,1014.85
2023-04-18T03:36:02.481Z,1014.88
2023-04-18T03:37:01.934Z,1014.88
2023-04-18T03:38:02.274Z,1014.90
2023-04-18T03:39:01.949Z,1014.85
2023-04-18T03:40:02.369Z,1014.90
2023-04-18T03:41:02.057Z,1014.90
2023-04-18T03:42:02.796Z,1014.88
2023-04-18T03:43:02.501Z,1014.90
2023-04-18T03:44:02.562Z,1014.88
2023-04-18T03:45:02.926Z,1014.87
2023-04-18T03:46:02.595Z,1014.91
2023-04-18T03:47:02.053Z,1014.91
2023-04-18T03:48:02.542Z,1014.88
2023-04-18T03:49:02.043Z,1014.90
2023-04-18T03:50:02.383Z,1014.87
2023-04-18T03:51:02.644Z,1014.88
2023-04-18T03:52:02.314Z,1014.85
2023-04-18T03:53:02.000Z,1014.88
2023-04-18T03:54:02.378Z,1014.87
2023-04-18T03:55:02.507Z,1014.92
2023-04-18T03:56:02.198Z,1014.89
2023-04-18T03:57:01.500Z,1014.93
2023-04-18T03:58:02.025Z,1014.92
2023-04-18T03:59:01.577Z,1014.94
2023-04-18T04:00:02.048Z,1014.87
2023-04-18T04:01:01.893Z,1014.90
2023-04-18T04:02:02.793Z,1014.92
2023-04-18T04:03:02.509Z,1014.93
2023-04-18T04:04:02.838Z,1014.92
2023-04-18T04:05:02.471Z,1014.96
2023-04-18T04:06:02.679Z,1014.92
2023-04-18T04:07:02.817Z,1014.97
2023-04-18T04:08:03.073Z,1014.97
2023-04-18T04:09:02.781Z,1014.99
2023-04-18T04:10:03.155Z,1014.97
2023-04-18T04:11:03.082Z,1015.00
2023-04-18T04:12:02.583Z,1015.05
2023-04-18T04:13:02.493Z,1015.06
2023-04-18T04:14:02.324Z,1015.03
2023-04-18T04:15:01.934Z,1015.04
2023-04-18T04:16:02.148Z,1015.07
2023-04-18T04:17:02.508Z,1015.08
2023-04-18T04:18:02.333Z,1015.09
2023-04-18T04:19:02.837Z,1015.12
2023-04-18T04:20:02.606Z,1015.08
2023-04-18T04:21:02.360Z,1015.09
2023-04-18T04:22:02.867Z,1015.09
2023-04-18T04:23:02.707Z,1015.12
2023-04-18T04:24:03.190Z,1015.13
2023-04-18T04:25:02.674Z,1015.14
2023-04-18T04:26:02.735Z,1015.13
2023-04-18T04:27:02.082Z,1015.15
2023-04-18T04:28:02.506Z,1015.15
2023-04-18T04:29:01.952Z,1015.11
2023-04-18T04:30:02.438Z,1015.14
2023-04-18T04:31:02.492Z,1015.11
2023-04-18T04:32:02.229Z,1015.15
2023-04-18T04:33:02.508Z,1015.18
2023-04-18T04:34:02.172Z,1015.15
2023-04-18T04:35:02.602Z,1015.14
2023-04-18T04:36:02.388Z,1015.15
2023-04-18T04:37:02.376Z,1015.15
2023-04-18T04:38:02.123Z,1015.17
2023-04-18T04:39:02.286Z,1015.17
2023-04-18T04:40:02.415Z,1015.18
2023-04-18T04:41:02.056Z,1015.17
2023-04-18T04:42:02.015Z,1015.21
2023-04-18T04:43:02.155Z,1015.21
2023-04-18T04:44:02.248Z,1015.21
2023-04-18T04:45:01.830Z,1015.23
2023-04-18T04:46:02.132Z,1015.24
2023-04-18T04:47:02.666Z,1015.21
2023-04-18T04:48:02.754Z,1015.24
2023-04-18T04:49:02.402Z,1015.25
2023-04-18T04:50:02.923Z,1015.25
2023-04-18T04:51:02.658Z,1015.27
2023-04-18T04:52:02.969Z,1015.25
2023-04-18T04:53:02.847Z,1015.29
2023-04-18T04:54:03.074Z,1015.30
2023-04-18T04:55:02.666Z,1015.32
2023-04-18T04:56:02.446Z,1015.29
2023-04-18T04:57:02.535Z,1015.28
2023-04-18T04:58:02.423Z,1015.26
2023-04-18T04:59:02.523Z,1015.30
2023-04-18T05:00:02.657Z,1015.32
2023-04-18T05:01:02.839Z,1015.32
2023-04-18T05:02:02.279Z,1015.34
2023-04-18T05:03:02.835Z,1015.34
2023-04-18T05:04:02.431Z,1015.43
2023-04-18T05:05:02.670Z,1015.37
2023-04-18T05:06:02.214Z,1015.37
2023-04-18T05:07:02.669Z,1015.35
2023-04-18T05:08:02.836Z,1015.40
2023-04-18T05:09:02.610Z,1015.39
2023-04-18T05:10:02.494Z,1015.37
2023-04-18T05:11:02.952Z,1015.39
2023-04-18T05:12:03.163Z,1015.39
2023-04-18T05:13:03.350Z,1015.39
2023-04-18T05:14:02.967Z,1015.37
2023-04-18T05:15:02.817Z,1015.40
2023-04-18T05:16:03.089Z,1015.45
2023-04-18T05:17:02.100Z,1015.42
2023-04-18T05:18:02.384Z,1015.44
2023-04-18T05:19:01.958Z,1015.48
2023-04-18T05:20:02.645Z,1015.43
2023-04-18T05:21:02.131Z,1015.42
2023-04-18T05:22:02.776Z,1015.45
2023-04-18T05:23:02.838Z,1015.46
2023-04-18T05:24:02.482Z,1015.46
2023-04-18T05:25:02.450Z,1015.47
2023-04-18T05:26:02.728Z,1015.45
2023-04-18T05:27:02.274Z,1015.45
2023-04-18T05:28:01.959Z,1015.47
2023-04-18T05:29:02.158Z,1015.45
2023-04-18T05:30:01.900Z,1015.43
2023-04-18T05:31:02.421Z,1015.44
2023-04-18T05:32:02.054Z,1015.46
2023-04-18T05:33:02.285Z,1015.48
2023-04-18T05:34:02.102Z,1015.48
2023-04-18T05:35:01.910Z,1015.49
2023-04-18T05:36:02.383Z,1015.50
2023-04-18T05:37:02.587Z,1015.45
2023-04-18T05:38:02.301Z,1015.50
2023-04-18T05:39:02.244Z,1015.47
2023-04-18T05:40:02.477Z,1015.52
2023-04-18T05:41:02.625Z,1015.52
2023-04-18T05:42:02.630Z,1015.51
2023-04-18T05:43:02.690Z,1015.57
2023-04-18T05:44:05.636Z,1015.52
2023-04-18T05:45:02.957Z,1015.55
2023-04-18T05:46:02.790Z,1015.60
2023-04-18T05:47:02.502Z,1015.59
2023-04-18T05:48:02.103Z,1015.57
2023-04-18T05:49:01.927Z,1015.59
2023-04-18T05:50:02.346Z,1015.60
2023-04-18T05:51:02.149Z,1015.59
2023-04-18T05:52:02.378Z,1015.60
2023-04-18T05:53:02.386Z,1015.61
2023-04-18T05:54:02.204Z,1015.61
2023-04-18T05:55:02.526Z,1015.62
2023-04-18T05:56:02.632Z,1015.61
2023-04-18T05:57:04.278Z,1015.61
2023-04-18T05:58:02.331Z,1015.61
2023-04-18T05:59:02.460Z,1015.59
2023-04-18T06:00:02.803Z,1015.65
2023-04-18T06:01:02.731Z,1015.67
2023-04-18T06:02:02.562Z,1015.65
2023-04-18T06:03:02.745Z,1015.66
2023-04-18T06:04:03.172Z,1015.69
2023-04-18T06:05:02.829Z,1015.64
2023-04-18T06:06:03.172Z,1015.65
2023-04-18T06:07:01.935Z,1015.64
2023-04-18T06:08:02.421Z,1015.64
2023-04-18T06:09:02.160Z,1015.67
2023-04-18T06:10:02.315Z,1015.68
2023-04-18T06:11:02.377Z,1015.64
2023-04-18T06:12:03.020Z,1015.66
2023-04-18T06:13:02.912Z,1015.72
2023-04-18T06:14:02.425Z,1015.70
2023-04-18T06:15:02.560Z,1015.65
2023-04-18T06:16:02.923Z,1015.68
2023-04-18T06:17:03.071Z,1015.68
2023-04-18T06:18:02.725Z,1015.72
2023-04-18T06:19:02.421Z,1015.71
2023-04-18T06:20:02.965Z,1015.70
2023-04-18T06:21:02.490Z,1015.74
2023-04-18T06:22:02.193Z,1015.70
2023-04-18T06:23:01.807Z,1015.73
2023-04-18T06:24:02.452Z,1015.74
2023-04-18T06:25:02.069Z,1015.74
2023-04-18T06:26:01.924Z,1015.74
2023-04-18T06:27:01.851Z,1015.75
2023-04-18T06:28:02.466Z,1015.73
2023-04-18T06:29:02.409Z,1015.79
2023-04-18T06:30:01.912Z,1015.74
2023-04-18T06:31:02.330Z,1015.76
2023-04-18T06:32:02.189Z,1015.77
2023-04-18T06:33:02.006Z,1015.78
2023-04-18T06:34:02.401Z,1015.77
2023-04-18T06:35:02.352Z,1015.77
2023-04-18T06:36:02.089Z,1015.77
2023-04-18T06:37:02.034Z,1015.83
2023-04-18T06:38:02.087Z,1015.78
2023-04-18T06:39:02.009Z,1015.79
2023-04-18T06:40:01.922Z,1015.81
2023-04-18T06:41:01.614Z,1015.83
2023-04-18T06:42:01.997Z,1015.79
2023-04-18T06:43:02.426Z,1015.81
2023-04-18T06:44:04.169Z,1015.80
2023-04-18T06:45:02.509Z,1015.83
2023-04-18T06:46:02.465Z,1015.82
2023-04-18T06:47:02.138Z,1015.81
2023-04-18T06:48:02.469Z,1015.81
2023-04-18T06:49:02.560Z,1015.79
2023-04-18T06:50:02.035Z,1015.82
2023-04-18T06:51:01.936Z,1015.82
2023-04-18T06:52:02.146Z,1015.85
2023-04-18T06:53:02.376Z,1015.84
2023-04-18T06:54:02.141Z,1015.83
2023-04-18T06:55:02.617Z,1015.82
2023-04-18T06:56:02.261Z,1015.84
2023-04-18T06:57:02.342Z,1015.82
2023-04-18T06:58:02.098Z,1015.84
2023-04-18T06:59:02.565Z,1015.84
2023-04-18T07:00:02.629Z,1015.84
2023-04-18T07:01:02.286Z,1015.84
2023-04-18T07:02:04.034Z,1015.83
2023-04-18T07:03:03.956Z,1015.87
2023-04-18T07:04:03.696Z,1015.88
2023-04-18T07:05:03.930Z,1015.88
2023-04-18T07:06:03.508Z,1015.84
2023-04-18T07:07:03.683Z,1015.85
2023-04-18T07:08:03.497Z,1015.86
2023-04-18T07:09:03.881Z,1015.92
2023-04-18T07:10:03.914Z,1015.89
2023-04-18T07:11:03.570Z,1015.94
2023-04-18T07:12:02.757Z,1015.91
2023-04-18T07:13:02.795Z,1015.93
2023-04-18T07:14:03.205Z,1015.92
2023-04-18T07:15:03.189Z,1015.93
2023-04-18T07:16:03.059Z,1015.92
2023-04-18T07:17:02.921Z,1015.93
2023-04-18T07:18:03.299Z,1015.95
2023-04-18T07:19:03.406Z,1015.92
2023-04-18T07:20:03.098Z,1015.95
2023-04-18T07:21:02.907Z,1015.92
2023-04-18T07:22:02.519Z,1015.96
2023-04-18T07:23:02.939Z,1015.95
2023-04-18T07:24:02.562Z,1015.93
2023-04-18T07:25:02.880Z,1015.94
2023-04-18T07:26:03.062Z,1015.97
2023-04-18T07:27:02.585Z,1015.99
2023-04-18T07:28:02.873Z,1015.97
2023-04-18T07:29:03.113Z,1015.97
2023-04-18T07:30:02.679Z,1016.02
2023-04-18T07:31:02.522Z,1015.95
2023-04-18T07:32:02.868Z,1015.97
2023-04-18T07:33:02.916Z,1016.00
2023-04-18T07:34:03.012Z,1015.95
2023-04-18T07:35:02.791Z,1015.96
2023-04-18T07:36:03.298Z,1015.94
2023-04-18T07:37:03.104Z,1015.94
2023-04-18T07:38:03.176Z,1015.93
2023-04-18T07:39:02.931Z,1015.95
2023-04-18T07:40:03.492Z,1015.89
2023-04-18T07:41:03.071Z,1015.91
2023-04-18T07:42:03.637Z,1015.93
2023-04-18T07:43:03.294Z,1015.92
2023-04-18T07:44:03.681Z,1015.91
2023-04-18T07:45:03.271Z,1015.89
2023-04-18T07:46:03.232Z,1015.85
2023-04-18T07:47:03.896Z,1015.85
2023-04-18T07:48:03.313Z,1015.90
2023-04-18T07:49:03.266Z,1015.91
2023-04-18T07:50:03.834Z,1015.90
2023-04-18T07:51:03.475Z,1015.88
2023-04-18T07:52:02.818Z,1015.92
2023-04-18T07:53:03.076Z,1015.92
2023-04-18T07:54:02.665Z,1015.90
2023-04-18T07:55:03.204Z,1015.92
2023-04-18T07:56:03.026Z,1015.95
2023-04-18T07:57:02.939Z,1015.97
2023-04-18T07:58:02.980Z,1015.99
2023-04-18T07:59:03.358Z,1016.03
2023-04-18T08:00:03.317Z,1015.91
2023-04-18T08:01:03.096Z,1015.96
2023-04-18T08:02:02.679Z,1016.02
2023-04-18T08:03:02.687Z,1016.04
2023-04-18T08:04:02.717Z,1016.10
2023-04-18T08:05:03.082Z,1016.04
2023-04-18T08:06:02.596Z,1016.08
2023-04-18T08:07:03.000Z,1016.07
2023-04-18T08:08:03.125Z,1016.08
2023-04-18T08:09:03.344Z,1016.02
2023-04-18T08:10:03.305Z,1016.03
2023-04-18T08:11:03.132Z,1016.02
2023-04-18T08:12:02.605Z,1016.03
2023-04-18T08:13:02.470Z,1016.08
2023-04-18T08:14:02.876Z,1016.06
2023-04-18T08:15:02.715Z,1016.04
2023-04-18T08:16:02.529Z,1016.07
2023-04-18T08:17:03.255Z,1016.11
2023-04-18T08:18:03.150Z,1016.12
2023-04-18T08:19:02.997Z,1016.11
2023-04-18T08:20:03.502Z,1016.11
2023-04-18T08:21:03.355Z,1016.10
2023-04-18T08:22:02.730Z,1016.15
2023-04-18T08:23:08.642Z,1016.12
2023-04-18T08:24:02.586Z,1016.13
2023-04-18T08:25:05.397Z,1016.10
2023-04-18T08:26:02.386Z,1016.12
2023-04-18T08:27:02.870Z,1016.16
2023-04-18T08:28:02.749Z,1016.15
2023-04-18T08:29:02.698Z,1016.10
2023-04-18T08:30:03.162Z,1016.10
2023-04-18T08:31:02.667Z,1016.10
2023-04-18T08:32:03.557Z,1016.11
2023-04-18T08:33:03.311Z,1016.10
2023-04-18T08:34:04.964Z,1016.11
2023-04-18T08:35:03.557Z,1016.11
2023-04-18T08:36:03.177Z,1016.16
2023-04-18T08:37:02.987Z,1016.16
2023-04-18T08:38:02.561Z,1016.17
2023-04-18T08:39:03.100Z,1016.17
2023-04-18T08:40:02.718Z,1016.14
2023-04-18T08:41:02.787Z,1016.14
2023-04-18T08:42:03.322Z,1016.18
2023-04-18T08:43:03.010Z,1016.14
2023-04-18T08:44:03.526Z,1016.14
2023-04-18T08:45:03.158Z,1016.15
2023-04-18T08:46:03.220Z,1016.16
2023-04-18T08:47:02.781Z,1016.13
2023-04-18T08:48:02.807Z,1016.19
2023-04-18T08:49:02.696Z,1016.22
2023-04-18T08:50:02.644Z,1016.20
2023-04-18T08:51:02.461Z,1016.16
2023-04-18T08:52:02.519Z,1016.16
2023-04-18T08:53:02.342Z,1016.18
2023-04-18T08:54:02.666Z,1016.14
2023-04-18T08:55:02.189Z,1016.17
2023-04-18T08:56:02.608Z,1016.17
2023-04-18T08:57:02.931Z,1016.23
2023-04-18T08:58:02.831Z,1016.17
2023-04-18T08:59:02.981Z,1016.15
2023-04-18T09:00:02.533Z,1016.15
2023-04-18T09:01:03.167Z,1016.15
2023-04-18T09:02:03.150Z,1016.21
2023-04-18T09:03:03.198Z,1016.11
2023-04-18T09:04:02.894Z,1016.12
2023-04-18T09:05:03.271Z,1016.11
2023-04-18T09:06:03.152Z,1016.15
2023-04-18T09:07:03.684Z,1016.17
2023-04-18T09:08:03.796Z,1016.17
2023-04-18T09:09:03.279Z,1016.19
2023-04-18T09:10:03.659Z,1016.13
2023-04-18T09:11:03.221Z,1016.14
2023-04-18T09:12:03.595Z,1016.14
2023-04-18T09:13:03.910Z,1016.11
2023-04-18T09:14:03.465Z,1016.13
2023-04-18T09:15:03.892Z,1016.12
2023-04-18T09:16:03.910Z,1016.06
2023-04-18T09:17:03.315Z,1016.13
2023-04-18T09:18:03.204Z,1016.10
2023-04-18T09:19:04.170Z,1016.08
2023-04-18T09:20:03.066Z,1016.07
2023-04-18T09:21:02.783Z,1016.02
2023-04-18T09:22:02.953Z,1016.02
2023-04-18T09:23:03.313Z,1015.96
2023-04-18T09:24:02.966Z,1015.90
2023-04-18T09:25:03.449Z,1015.89
2023-04-18T09:26:03.136Z,1015.88
2023-04-18T09:27:03.601Z,1015.90
2023-04-18T09:28:03.440Z,1015.88
2023-04-18T09:29:03.165Z,1015.92
2023-04-18T09:30:03.033Z,1015.90
2023-04-18T09:31:03.473Z,1015.90
2023-04-18T09:32:03.203Z,1015.91
2023-04-18T09:33:03.250Z,1015.89
2023-04-18T09:34:02.714Z,1015.92
2023-04-18T09:35:04.333Z,1015.94
2023-04-18T09:36:02.668Z,1015.97
2023-04-18T09:37:03.844Z,1015.94
2023-04-18T09:38:03.421Z,1015.93
2023-04-18T09:39:03.225Z,1015.99
2023-04-18T09:40:03.808Z,1015.97
2023-04-18T09:41:03.457Z,1015.98
2023-04-18T09:42:02.492Z,1015.93
2023-04-18T09:43:02.883Z,1015.97
2023-04-18T09:44:02.729Z,1015.92
2023-04-18T09:45:03.127Z,1015.94
2023-04-18T09:46:02.669Z,1015.91
2023-04-18T09:47:02.509Z,1015.91
2023-04-18T09:48:02.967Z,1015.89
2023-04-18T09:49:02.912Z,1015.88
2023-04-18T09:50:02.983Z,1015.90
2023-04-18T09:51:03.111Z,1015.86
2023-04-18T09:52:03.357Z,1015.84
2023-04-18T09:53:03.109Z,1015.86
2023-04-18T09:54:03.055Z,1015.81
2023-04-18T09:55:02.839Z,1015.85
2023-04-18T09:56:02.956Z,1015.84
2023-04-18T09:57:03.162Z,1015.82
2023-04-18T09:58:03.807Z,1015.88
2023-04-18T09:59:03.762Z,1015.87
2023-04-18T10:00:03.309Z,1015.84
2023-04-18T10:01:03.479Z,1015.87
2023-04-18T10:02:02.819Z,1015.86
2023-04-18T10:03:03.051Z,1015.85
2023-04-18T10:04:02.874Z,1015.81
2023-04-18T10:05:02.976Z,1015.78
2023-04-18T10:06:02.790Z,1015.76
2023-04-18T10:07:03.557Z,1015.77
2023-04-18T10:08:03.391Z,1015.81
2023-04-18T10:09:03.273Z,1015.79
2023-04-18T10:10:03.341Z,1015.83
2023-04-18T10:11:03.639Z,1015.85
2023-04-18T10:12:02.863Z,1015.85
2023-04-18T10:13:02.587Z,1015.80
2023-04-18T10:14:02.658Z,1015.83
2023-04-18T10:15:02.733Z,1015.82
2023-04-18T10:16:02.722Z,1015.83
2023-04-18T10:17:02.731Z,1015.80
2023-04-18T10:18:05.840Z,1015.78
2023-04-18T10:19:03.285Z,1015.76
2023-04-18T10:20:02.997Z,1015.81
2023-04-18T10:21:03.094Z,1015.77
2023-04-18T10:22:02.919Z,1015.77
2023-04-18T10:23:03.304Z,1015.77
2023-04-18T10:24:03.518Z,1015.75
2023-04-18T10:25:03.225Z,1015.77
2023-04-18T10:26:02.946Z,1015.79
2023-04-18T10:27:02.620Z,1015.76
2023-04-18T10:28:02.652Z,1015.72
2023-04-18T10:29:03.125Z,1015.69
2023-04-18T10:30:02.430Z,1015.73
2023-04-18T10:31:02.700Z,1015.67
2023-04-18T10:32:03.076Z,1015.65
2023-04-18T10:33:03.157Z,1015.67
2023-04-18T10:34:05.583Z,1015.61
2023-04-18T10:35:03.139Z,1015.61
2023-04-18T10:36:03.251Z,1015.63
2023-04-18T10:37:02.315Z,1015.60
2023-04-18T10:38:02.264Z,1015.58
2023-04-18T10:39:02.484Z,1015.55
2023-04-18T10:40:02.679Z,1015.55
2023-04-18T10:41:02.632Z,1015.54
2023-04-18T10:42:02.806Z,1015.51
2023-04-18T10:43:02.844Z,1015.57
2023-04-18T10:44:03.197Z,1015.52
2023-04-18T10:45:02.808Z,1015.59
2023-04-18T10:46:02.709Z,1015.56
2023-04-18T10:47:02.556Z,1015.60
2023-04-18T10:48:02.326Z,1015.51
2023-04-18T10:49:02.912Z,1015.49
2023-04-18T10:50:05.932Z,1015.52
2023-04-18T10:51:02.695Z,1015.56
2023-04-18T10:52:03.089Z,1015.56
2023-04-18T10:53:02.897Z,1015.61
2023-04-18T10:54:03.234Z,1015.55
2023-04-18T10:55:03.134Z,1015.49
2023-04-18T10:56:02.944Z,1015.53
2023-04-18T10:57:02.633Z,1015.53
2023-04-18T10:58:02.738Z,1015.52
2023-04-18T10:59:02.944Z,1015.53
2023-04-18T11:00:02.771Z,1015.54
2023-04-18T11:01:02.948Z,1015.50
2023-04-18T11:02:02.634Z,1015.55
2023-04-18T11:03:02.944Z,1015.51
2023-04-18T11:04:02.977Z,1015.51
2023-04-18T11:05:02.452Z,1015.50
2023-04-18T11:06:02.849Z,1015.54
2023-04-18T11:07:02.004Z,1015.49
2023-04-18T11:08:01.726Z,1015.50
2023-04-18T11:09:01.931Z,1015.47
2023-04-18T11:10:02.022Z,1015.41
2023-04-18T11:11:02.133Z,1015.44
2023-04-18T11:12:02.396Z,1015.45
2023-04-18T11:13:02.373Z,1015.37
2023-04-18T11:14:02.451Z,1015.37
2023-04-18T11:15:02.204Z,1015.38
2023-04-18T11:16:02.270Z,1015.38
2023-04-18T11:17:02.565Z,1015.36
2023-04-18T11:18:02.615Z,1015.39
2023-04-18T11:19:02.701Z,1015.43
2023-04-18T11:20:02.520Z,1015.43
2023-04-18T11:21:02.603Z,1015.43
2023-04-18T11:22:02.519Z,1015.44
2023-04-18T11:23:02.380Z,1015.39
2023-04-18T11:24:02.415Z,1015.43
2023-04-18T11:25:02.509Z,1015.43
2023-04-18T11:26:02.427Z,1015.38
2023-04-18T11:27:02.162Z,1015.41
2023-04-18T11:28:02.332Z,1015.40
2023-04-18T11:29:02.080Z,1015.38
2023-04-18T11:30:02.271Z,1015.36
2023-04-18T11:31:01.978Z,1015.35
2023-04-18T11:32:02.580Z,1015.43
2023-04-18T11:33:02.722Z,1015.37
2023-04-18T11:34:02.588Z,1015.31
2023-04-18T11:35:02.381Z,1015.34
2023-04-18T11:36:02.441Z,1015.29
2023-04-18T11:37:02.248Z,1015.37
2023-04-18T11:38:02.322Z,1015.35
2023-04-18T11:39:01.958Z,1015.34
2023-04-18T11:40:02.362Z,1015.33
2023-04-18T11:41:02.076Z,1015.31
2023-04-18T11:42:02.751Z,1015.32
2023-04-18T11:43:02.790Z,1015.38
2023-04-18T11:44:02.689Z,1015.30
2023-04-18T11:45:02.526Z,1015.31
2023-04-18T11:46:02.444Z,1015.26
2023-04-18T11:47:03.011Z,1015.27
2023-04-18T11:48:02.534Z,1015.33
2023-04-18T11:49:02.828Z,1015.34
2023-04-18T11:50:02.955Z,1015.33
2023-04-18T11:51:03.145Z,1015.32
2023-04-18T11:52:02.264Z,1015.31
2023-04-18T11:53:02.285Z,1015.37
2023-04-18T11:54:01.815Z,1015.35
2023-04-18T11:55:01.858Z,1015.32
2023-04-18T11:56:01.868Z,1015.28
2023-04-18T11:57:02.339Z,1015.31
2023-04-18T11:58:01.884Z,1015.29
2023-04-18T11:59:02.219Z,1015.37
2023-04-18T12:00:02.579Z,1015.33
2023-04-18T12:01:01.961Z,1015.34
2023-04-18T12:02:14.421Z,1015.34
2023-04-18T12:03:02.455Z,1015.36
2023-04-18T12:04:02.987Z,1015.37
2023-04-18T12:05:02.677Z,1015.36